createdAt,value
2023-07-09T00:00:58.596Z,21.84
2023-07-09T00:03:26.060Z,21.85
2023-07-09T00:05:53.253Z,21.79
2023-07-09T00:08:30.786Z,21.86
2023-07-09T00:10:59.146Z,22.06
2023-07-09T00:13:27.302Z,22.08
2023-07-09T00:15:56.688Z,21.67
2023-07-09T00:18:24.824Z,21.73
2023-07-09T00:20:51.999Z,21.82
2023-07-09T00:23:21.247Z,21.87
2023-07-09T00:25:48.768Z,21.82
2023-07-09T00:28:16.812Z,21.15
2023-07-09T00:30:45.164Z,21.74
2023-07-09T00:33:15.449Z,21.54
2023-07-09T00:35:43.205Z,21.53
2023-07-09T00:38:14.079Z,21.70
2023-07-09T00:40:46.681Z,21.87
2023-07-09T00:43:15.934Z,21.53
2023-07-09T00:45:43.453Z,21.45
2023-07-09T00:48:15.149Z,21.43
2023-07-09T00:50:47.240Z,21.26
2023-07-09T00:53:19.385Z,21.58
2023-07-09T00:55:47.436Z,21.68
2023-07-09T00:58:16.504Z,21.17
2023-07-09T01:00:49.632Z,20.83
2023-07-09T01:03:28.414Z,21.11
2023-07-09T01:05:56.679Z,20.95
2023-07-09T01:08:24.582Z,21.10
2023-07-09T01:10:51.776Z,21.18
2023-07-09T01:13:20.776Z,20.95
2023-07-09T01:15:48.366Z,20.87
2023-07-09T01:18:15.798Z,21.28
2023-07-09T01:20:43.031Z,20.81
2023-07-09T01:23:10.674Z,20.95
2023-07-09T01:25:40.002Z,21.19
2023-07-09T01:28:07.262Z,20.65
2023-07-09T01:30:39.073Z,20.98
2023-07-09T01:33:07.325Z,20.84
2023-07-09T01:35:36.500Z,20.61
2023-07-09T01:38:03.691Z,20.85
2023-07-09T01:40:32.067Z,21.28
2023-07-09T01:43:01.395Z,21.18
2023-07-09T01:45:29.347Z,21.14
2023-07-09T01:47:56.936Z,20.96
2023-07-09T01:50:26.169Z,20.98
2023-07-09T01:52:54.433Z,20.80
2023-07-09T01:55:21.951Z,20.80
2023-07-09T01:57:52.271Z,21.16
2023-07-09T02:00:19.910Z,21.18
2023-07-09T02:02:49.807Z,20.88
2023-07-09T02:05:21.658Z,20.82
2023-07-09T02:07:49.276Z,21.13
2023-07-09T02:10:17.827Z,21.18
2023-07-09T02:12:45.279Z,21.07
2023-07-09T02:15:12.937Z,21.21
2023-07-09T02:17:40.580Z,20.87
2023-07-09T02:20:09.543Z,20.74
2023-07-09T02:22:37.208Z,20.60
2023-07-09T02:25:05.217Z,20.39
2023-07-09T02:27:32.517Z,20.47
2023-07-09T02:29:59.706Z,20.48
2023-07-09T02:32:27.837Z,20.49
2023-07-09T02:34:55.704Z,20.75
2023-07-09T02:37:25.029Z,20.17
2023-07-09T02:39:52.630Z,20.44
2023-07-09T02:42:21.359Z,20.69
2023-07-09T02:44:48.739Z,21.00
2023-07-09T02:47:16.310Z,20.79
2023-07-09T02:49:43.815Z,20.88
2023-07-09T02:52:11.037Z,20.28
2023-07-09T02:54:38.532Z,20.22
2023-07-09T02:57:05.816Z,20.20
2023-07-09T02:59:33.879Z,20.32
2023-07-09T03:02:01.697Z,20.17
2023-07-09T03:04:29.048Z,20.34
2023-07-09T03:06:56.796Z,20.20
2023-07-09T03:09:24.515Z,20.09
2023-07-09T03:11:51.802Z,19.64
2023-07-09T03:14:19.004Z,19.87
2023-07-09T03:16:46.500Z,19.93
2023-07-09T03:19:13.835Z,19.88
2023-07-09T03:21:41.069Z,19.89
2023-07-09T03:24:09.594Z,20.59
2023-07-09T03:26:37.085Z,20.33
2023-07-09T03:29:04.282Z,20.31
2023-07-09T03:31:32.270Z,20.65
2023-07-09T03:33:59.609Z,20.54
2023-07-09T03:36:26.771Z,20.45
2023-07-09T03:38:54.266Z,20.43
2023-07-09T03:41:21.474Z,20.30
2023-07-09T03:43:51.267Z,20.39
2023-07-09T03:46:18.728Z,20.46
2023-07-09T03:48:46.030Z,20.70
2023-07-09T03:51:13.373Z,20.52
2023-07-09T03:53:40.854Z,20.37
2023-07-09T03:56:08.096Z,20.60
2023-07-09T03:58:36.175Z,20.81
2023-07-09T04:01:03.790Z,20.73
2023-07-09T04:03:31.436Z,20.82
2023-07-09T04:05:58.656Z,20.50
2023-07-09T04:08:26.965Z,20.79
2023-07-09T04:10:56.071Z,20.76
2023-07-09T04:13:24.316Z,20.87
2023-07-09T04:15:51.649Z,20.95
2023-07-09T04:18:19.156Z,21.13
2023-07-09T04:20:50.730Z,21.05
2023-07-09T04:23:19.158Z,21.00
2023-07-09T04:25:46.483Z,20.95
2023-07-09T04:28:14.398Z,21.07
2023-07-09T04:30:46.479Z,21.13
2023-07-09T04:33:13.650Z,21.47
2023-07-09T04:35:41.092Z,21.30
2023-07-09T04:38:09.517Z,21.23
2023-07-09T04:40:37.063Z,21.17
2023-07-09T04:43:04.289Z,21.30
2023-07-09T04:45:31.756Z,21.45
2023-07-09T04:47:59.008Z,21.20
2023-07-09T04:50:26.460Z,21.43
2023-07-09T04:52:53.991Z,21.37
2023-07-09T04:55:22.813Z,21.53
2023-07-09T04:57:50.054Z,21.73
2023-07-09T05:00:17.562Z,21.94
2023-07-09T05:02:44.844Z,22.17
2023-07-09T05:05:13.075Z,22.26
2023-07-09T05:07:41.072Z,22.22
2023-07-09T05:10:08.401Z,22.25
2023-07-09T05:12:35.681Z,22.45
2023-07-09T05:15:03.252Z,22.43
2023-07-09T05:17:31.592Z,22.64
2023-07-09T05:19:58.850Z,22.70
2023-07-09T05:22:26.360Z,22.93
2023-07-09T05:24:53.576Z,23.04
2023-07-09T05:27:20.780Z,22.94
2023-07-09T05:29:48.308Z,23.18
2023-07-09T05:32:15.480Z,23.36
2023-07-09T05:34:42.657Z,23.46
2023-07-09T05:37:10.146Z,23.77
2023-07-09T05:39:37.379Z,23.66
2023-07-09T05:42:04.825Z,23.82
2023-07-09T05:44:32.434Z,23.92
2023-07-09T05:46:59.695Z,24.20
2023-07-09T05:49:26.916Z,23.96
2023-07-09T05:51:54.508Z,24.05
2023-07-09T05:54:22.559Z,24.19
2023-07-09T05:56:49.866Z,24.27
2023-07-09T05:59:17.381Z,24.65
2023-07-09T06:01:44.604Z,24.78
2023-07-09T06:04:15.014Z,24.91
2023-07-09T06:06:42.691Z,25.10
2023-07-09T06:09:09.947Z,25.23
2023-07-09T06:11:37.437Z,25.39
2023-07-09T06:14:04.690Z,25.43
2023-07-09T06:16:32.841Z,25.59
2023-07-09T06:19:00.399Z,25.83
2023-07-09T06:21:27.599Z,25.78
2023-07-09T06:23:54.785Z,26.05
2023-07-09T06:26:22.319Z,26.38
2023-07-09T06:28:50.002Z,26.48
2023-07-09T06:31:17.278Z,26.68
2023-07-09T06:33:44.774Z,26.70
2023-07-09T06:36:11.988Z,26.82
2023-07-09T06:38:39.182Z,26.83
2023-07-09T06:41:06.698Z,27.08
2023-07-09T06:43:33.972Z,27.46
2023-07-09T06:46:01.497Z,27.63
2023-07-09T06:48:29.660Z,27.67
2023-07-09T06:50:57.085Z,27.85
2023-07-09T06:53:24.735Z,28.02
2023-07-09T06:55:54.111Z,28.08
2023-07-09T06:58:21.396Z,28.30
2023-07-09T07:00:50.103Z,28.41
2023-07-09T07:03:17.856Z,28.58
2023-07-09T07:05:45.931Z,28.63
2023-07-09T07:08:14.737Z,28.73
2023-07-09T07:10:42.333Z,28.89
2023-07-09T07:13:12.055Z,29.26
2023-07-09T07:15:39.400Z,29.54
2023-07-09T07:18:07.143Z,29.57
2023-07-09T07:20:34.641Z,29.68
2023-07-09T07:23:01.991Z,29.88
2023-07-09T07:25:31.605Z,29.86
2023-07-09T07:27:58.852Z,30.14
2023-07-09T07:30:26.485Z,30.30
2023-07-09T07:32:54.044Z,30.47
2023-07-09T07:35:21.292Z,30.72
2023-07-09T07:37:48.476Z,30.81
2023-07-09T07:40:15.988Z,30.87
2023-07-09T07:42:43.184Z,31.13
2023-07-09T07:45:10.497Z,31.29
2023-07-09T07:47:38.664Z,31.28
2023-07-09T07:50:06.877Z,31.37
2023-07-09T07:52:34.658Z,31.62
2023-07-09T07:55:02.171Z,31.69
2023-07-09T07:57:29.368Z,31.84
2023-07-09T07:59:56.615Z,32.15
2023-07-09T08:02:24.492Z,32.15
2023-07-09T08:04:52.096Z,32.23
2023-07-09T08:07:19.852Z,32.23
2023-07-09T08:09:49.980Z,32.48
2023-07-09T08:12:17.878Z,32.42
2023-07-09T08:14:46.201Z,32.59
2023-07-09T08:17:13.411Z,32.78
2023-07-09T08:19:51.454Z,33.06
2023-07-09T08:22:21.763Z,33.12
2023-07-09T08:24:49.930Z,33.15
2023-07-09T08:27:17.097Z,33.23
2023-07-09T08:29:44.367Z,32.94
2023-07-09T08:32:12.321Z,33.12
2023-07-09T08:34:50.128Z,33.25
2023-07-09T08:37:27.476Z,33.53
2023-07-09T08:39:54.808Z,33.77
2023-07-09T08:42:23.466Z,34.02
2023-07-09T08:44:53.149Z,34.04
2023-07-09T08:47:20.464Z,34.24
2023-07-09T08:49:49.104Z,34.20
2023-07-09T08:52:20.423Z,34.12
2023-07-09T08:54:47.657Z,34.24
2023-07-09T08:57:26.388Z,34.63
2023-07-09T08:59:55.123Z,34.71
2023-07-09T09:02:27.087Z,34.77
2023-07-09T09:04:54.570Z,34.55
2023-07-09T09:07:41.768Z,34.47
2023-07-09T09:10:19.311Z,34.69
2023-07-09T09:12:55.341Z,34.79
2023-07-09T09:15:22.863Z,34.82
2023-07-09T09:17:51.538Z,34.90
2023-07-09T09:20:22.392Z,35.34
2023-07-09T09:22:51.714Z,35.29
2023-07-09T09:25:29.527Z,35.63
2023-07-09T09:27:57.007Z,35.73
2023-07-09T09:30:25.184Z,35.98
2023-07-09T09:32:53.828Z,36.01
2023-07-09T09:35:22.230Z,35.76
2023-07-09T09:37:53.340Z,35.96
2023-07-09T09:40:24.744Z,35.92
2023-07-09T09:42:52.957Z,36.24
2023-07-09T09:45:21.875Z,36.34
2023-07-09T09:47:49.774Z,36.33
2023-07-09T09:50:18.169Z,36.01
2023-07-09T09:52:50.481Z,36.37
2023-07-09T09:55:21.618Z,36.08
2023-07-09T09:57:52.684Z,35.66
2023-07-09T10:00:22.707Z,35.47
2023-07-09T10:02:50.340Z,35.05
2023-07-09T10:05:18.116Z,35.29
2023-07-09T10:07:57.567Z,35.48
2023-07-09T10:10:25.227Z,35.87
2023-07-09T10:12:53.360Z,35.80
2023-07-09T10:15:24.575Z,35.80
2023-07-09T10:17:55.190Z,36.17
2023-07-09T10:20:28.166Z,36.43
2023-07-09T10:22:58.944Z,36.22
2023-07-09T10:25:26.206Z,36.39
2023-07-09T10:27:53.378Z,36.54
2023-07-09T10:30:35.985Z,36.90
2023-07-09T10:33:09.190Z,37.05
2023-07-09T10:35:42.226Z,37.21
2023-07-09T10:38:19.078Z,37.49
2023-07-09T10:40:49.844Z,37.60
2023-07-09T10:43:22.121Z,37.67
2023-07-09T10:45:59.953Z,37.65
2023-07-09T10:48:30.236Z,37.83
2023-07-09T10:50:57.694Z,37.69
2023-07-09T10:53:33.309Z,37.77
2023-07-09T10:56:01.981Z,37.49
2023-07-09T10:58:34.535Z,37.75
2023-07-09T11:01:02.570Z,37.61
2023-07-09T11:03:42.264Z,37.55
2023-07-09T11:06:12.147Z,36.83
2023-07-09T11:08:39.792Z,36.82
2023-07-09T11:11:11.340Z,36.77
2023-07-09T11:13:51.849Z,36.48
2023-07-09T11:16:28.517Z,36.68
2023-07-09T11:18:57.759Z,36.92
2023-07-09T11:21:24.979Z,37.11
2023-07-09T11:23:53.048Z,37.19
2023-07-09T11:26:27.652Z,36.99
2023-07-09T11:29:13.722Z,37.16
2023-07-09T11:31:42.108Z,37.37
2023-07-09T11:34:10.546Z,37.47
2023-07-09T11:36:56.362Z,37.30
2023-07-09T11:39:30.652Z,37.38
2023-07-09T11:41:57.963Z,36.16
2023-07-09T11:44:32.092Z,36.48
2023-07-09T11:47:18.512Z,36.67
2023-07-09T11:50:02.380Z,37.10
2023-07-09T11:52:38.158Z,37.04
2023-07-09T11:55:24.452Z,36.83
2023-07-09T11:57:58.444Z,36.40
2023-07-09T12:00:27.021Z,36.37
2023-07-09T12:02:54.517Z,36.44
2023-07-09T12:05:28.839Z,36.51
2023-07-09T12:07:57.880Z,36.56
2023-07-09T12:10:25.660Z,36.74
2023-07-09T12:12:56.959Z,36.91
2023-07-09T12:15:26.051Z,37.04
2023-07-09T12:17:54.384Z,37.12
2023-07-09T12:20:21.932Z,37.10
2023-07-09T12:22:49.577Z,37.17
2023-07-09T12:25:21.078Z,36.91
2023-07-09T12:27:48.798Z,36.85
2023-07-09T12:30:16.469Z,36.77
2023-07-09T12:32:44.192Z,36.60
2023-07-09T12:35:13.141Z,36.26
2023-07-09T12:37:40.679Z,35.97
2023-07-09T12:40:12.511Z,35.99
2023-07-09T12:42:39.763Z,35.96
2023-07-09T12:45:09.534Z,35.87
2023-07-09T12:47:36.767Z,35.91
2023-07-09T12:50:09.366Z,35.84
2023-07-09T12:52:36.873Z,36.31
2023-07-09T12:55:04.181Z,36.70
2023-07-09T12:57:32.029Z,36.90
2023-07-09T12:59:59.767Z,37.18
2023-07-09T13:02:30.469Z,36.99
2023-07-09T13:05:02.314Z,37.10
2023-07-09T13:07:36.070Z,37.00
2023-07-09T13:10:35.876Z,37.03
2023-07-09T13:13:03.869Z,37.11
2023-07-09T13:15:33.093Z,37.07
2023-07-09T13:18:01.525Z,37.15
2023-07-09T13:20:29.428Z,37.32
2023-07-09T13:22:56.850Z,37.32
2023-07-09T13:25:36.716Z,37.34
2023-07-09T13:28:22.100Z,37.25
2023-07-09T13:30:49.822Z,36.83
2023-07-09T13:33:18.949Z,36.74
2023-07-09T13:35:46.758Z,36.43
2023-07-09T13:38:15.083Z,36.72
2023-07-09T13:40:45.380Z,36.59
2023-07-09T13:43:16.818Z,36.58
2023-07-09T13:45:44.389Z,36.92
2023-07-09T13:48:13.689Z,36.94
2023-07-09T13:50:41.080Z,37.08
2023-07-09T13:53:15.986Z,37.22
2023-07-09T13:55:43.301Z,37.43
2023-07-09T13:58:11.816Z,37.24
2023-07-09T14:00:40.027Z,37.22
2023-07-09T14:03:19.488Z,37.45
2023-07-09T14:05:47.371Z,36.85
2023-07-09T14:08:16.224Z,36.98
2023-07-09T14:10:43.768Z,37.13
2023-07-09T14:13:14.734Z,37.11
2023-07-09T14:15:42.465Z,37.07
2023-07-09T14:18:12.661Z,36.83
2023-07-09T14:20:39.947Z,36.86
2023-07-09T14:23:09.415Z,36.83
2023-07-09T14:25:36.633Z,37.02
2023-07-09T14:28:05.587Z,37.16
2023-07-09T14:30:33.179Z,37.22
2023-07-09T14:33:00.506Z,37.23
2023-07-09T14:35:27.967Z,36.88
2023-07-09T14:37:56.148Z,36.90
2023-07-09T14:40:23.698Z,36.76
2023-07-09T14:42:51.273Z,36.69
2023-07-09T14:45:18.852Z,36.80
2023-07-09T14:47:46.536Z,36.59
2023-07-09T14:50:13.794Z,36.71
2023-07-09T14:52:42.280Z,36.81
2023-07-09T14:55:14.233Z,36.57
2023-07-09T14:57:41.690Z,36.59
2023-07-09T15:00:13.239Z,36.79
2023-07-09T15:02:41.017Z,36.95
2023-07-09T15:05:16.124Z,36.95
2023-07-09T15:07:43.517Z,36.70
2023-07-09T15:10:13.634Z,36.45
2023-07-09T15:12:40.865Z,36.38
2023-07-09T15:15:25.196Z,36.29
2023-07-09T15:17:52.736Z,35.78
2023-07-09T15:20:25.183Z,35.94
2023-07-09T15:22:52.937Z,35.72
2023-07-09T15:25:20.828Z,36.19
2023-07-09T15:27:48.161Z,36.12
2023-07-09T15:30:16.800Z,36.14
2023-07-09T15:32:44.872Z,36.27
2023-07-09T15:35:12.273Z,36.21
2023-07-09T15:37:39.750Z,36.11
2023-07-09T15:40:29.280Z,36.10
2023-07-09T15:42:58.453Z,35.96
2023-07-09T15:45:25.741Z,36.07
2023-07-09T15:47:53.976Z,35.85
2023-07-09T15:50:23.192Z,35.72
2023-07-09T15:52:51.121Z,35.71
2023-07-09T15:55:21.013Z,35.59
2023-07-09T15:57:49.355Z,35.83
2023-07-09T16:00:20.877Z,35.98
2023-07-09T16:02:49.847Z,35.86
2023-07-09T16:05:20.045Z,35.76
2023-07-09T16:07:47.372Z,35.70
2023-07-09T16:10:14.993Z,35.75
2023-07-09T16:12:46.320Z,35.35
2023-07-09T16:15:15.328Z,35.48
2023-07-09T16:17:43.292Z,35.55
2023-07-09T16:20:11.475Z,35.48
2023-07-09T16:22:42.503Z,35.30
2023-07-09T16:25:13.863Z,35.61
2023-07-09T16:27:42.337Z,35.54
2023-07-09T16:30:14.118Z,35.56
2023-07-09T16:32:41.306Z,35.39
2023-07-09T16:35:12.055Z,35.47
2023-07-09T16:37:39.872Z,35.51
2023-07-09T16:40:13.380Z,35.57
2023-07-09T16:42:43.194Z,35.51
2023-07-09T16:45:11.926Z,35.43
2023-07-09T16:47:39.138Z,35.47
2023-07-09T16:50:06.856Z,35.55
2023-07-09T16:52:34.123Z,35.52
2023-07-09T16:55:01.395Z,35.41
2023-07-09T16:57:29.576Z,35.31
2023-07-09T16:59:59.271Z,35.16
2023-07-09T17:02:27.919Z,35.12
2023-07-09T17:04:56.150Z,35.07
2023-07-09T17:07:23.433Z,34.93
2023-07-09T17:09:50.746Z,35.12
2023-07-09T17:12:18.355Z,34.97
2023-07-09T17:14:45.713Z,34.55
2023-07-09T17:17:22.564Z,34.82
2023-07-09T17:19:50.194Z,34.85
2023-07-09T17:22:21.405Z,34.77
2023-07-09T17:24:48.785Z,34.72
2023-07-09T17:27:16.323Z,34.62
2023-07-09T18:48:44.171Z,28.49
2023-07-09T18:51:13.156Z,28.49
2023-07-09T18:53:41.251Z,28.39
2023-07-09T18:56:09.167Z,28.78
2023-07-09T18:58:38.996Z,29.04
2023-07-09T19:01:19.485Z,29.12
2023-07-09T19:03:47.818Z,29.32
2023-07-09T19:06:15.414Z,29.17
2023-07-09T19:08:43.568Z,29.20
2023-07-09T19:11:11.339Z,29.19
2023-07-09T19:13:38.762Z,29.12
2023-07-09T19:16:22.727Z,29.12
2023-07-09T19:18:50.815Z,29.00
2023-07-09T19:21:19.090Z,29.12
2023-07-09T19:23:46.569Z,29.16
2023-07-09T19:26:14.238Z,29.10
2023-07-09T19:28:41.789Z,28.92
2023-07-09T19:31:09.400Z,28.79
2023-07-09T19:33:38.628Z,28.74
2023-07-09T19:36:24.296Z,28.52
2023-07-09T19:38:53.061Z,28.32
2023-07-09T19:41:21.680Z,28.21
2023-07-09T19:43:49.266Z,28.31
2023-07-09T19:46:22.467Z,28.49
2023-07-09T19:48:50.252Z,28.37
2023-07-09T19:51:18.577Z,28.26
2023-07-09T19:53:46.895Z,27.86
2023-07-09T19:56:14.987Z,27.88
2023-07-09T19:58:43.611Z,27.78
2023-07-09T20:01:16.307Z,27.46
2023-07-09T20:03:44.206Z,27.74
2023-07-09T20:06:12.802Z,27.44
2023-07-09T20:08:40.589Z,27.53
2023-07-09T20:11:13.841Z,27.76
2023-07-09T20:13:41.797Z,27.59
2023-07-09T20:16:24.062Z,27.56
2023-07-09T20:18:53.738Z,27.84
2023-07-09T20:21:23.998Z,27.26
2023-07-09T20:23:52.086Z,27.35
2023-07-09T20:26:19.643Z,27.20
2023-07-09T20:28:47.709Z,27.32
2023-07-09T20:31:21.575Z,27.11
2023-07-09T20:33:59.644Z,27.02
2023-07-09T20:36:27.242Z,27.22
2023-07-09T20:38:55.069Z,27.39
2023-07-09T20:41:23.896Z,27.18
2023-07-09T20:43:51.732Z,27.07
2023-07-09T20:46:20.479Z,26.65
2023-07-09T20:48:48.651Z,26.94
2023-07-09T20:51:16.398Z,26.86
2023-07-09T20:53:44.363Z,27.06
2023-07-09T20:56:15.583Z,26.94
2023-07-09T20:58:43.360Z,26.77
2023-07-09T21:01:16.940Z,26.64
2023-07-09T21:03:44.409Z,26.72
2023-07-09T21:06:17.279Z,26.53
2023-07-09T21:08:44.827Z,26.38
2023-07-09T21:11:12.521Z,25.85
2023-07-09T21:13:40.068Z,26.21
2023-07-09T21:16:18.038Z,26.18
2023-07-09T21:18:45.766Z,25.90
2023-07-09T21:21:13.496Z,25.84
2023-07-09T21:23:41.183Z,26.05
2023-07-09T21:26:15.622Z,25.90
2023-07-09T21:28:43.049Z,25.78
2023-07-09T21:31:18.447Z,25.51
2023-07-09T21:33:46.038Z,25.63
2023-07-09T21:36:13.707Z,25.50
2023-07-09T21:38:41.113Z,25.85
2023-07-09T21:41:08.583Z,25.89
2023-07-09T21:43:36.313Z,25.73
2023-07-09T21:46:04.052Z,25.57
2023-07-09T21:48:31.984Z,25.41
2023-07-09T21:50:59.754Z,25.17
2023-07-09T21:53:55.120Z,25.05
2023-07-09T21:56:17.630Z,25.03
2023-07-09T21:58:45.017Z,24.33
2023-07-09T22:01:16.155Z,24.14
2023-07-09T22:03:43.991Z,24.17
2023-07-09T22:06:12.314Z,24.27
2023-07-09T22:08:47.702Z,24.38
2023-07-09T22:11:27.851Z,24.18
2023-07-09T22:13:56.877Z,24.24
2023-07-09T22:16:28.104Z,24.01
2023-07-09T22:18:55.690Z,24.33
2023-07-09T22:21:23.102Z,24.23
2023-07-09T22:23:58.074Z,24.17
2023-07-09T22:26:25.504Z,24.05
2023-07-09T22:28:53.193Z,24.20
2023-07-09T22:31:20.811Z,24.26
2023-07-09T22:33:48.291Z,24.28
2023-07-09T22:36:15.914Z,24.30
2023-07-09T22:38:43.337Z,24.23
2023-07-09T22:41:10.962Z,24.17
2023-07-09T22:43:38.721Z,23.93
2023-07-09T22:46:06.479Z,24.03
2023-07-09T22:48:34.149Z,24.00
2023-07-09T22:51:01.914Z,23.85
2023-07-09T22:53:29.410Z,23.92
2023-07-09T22:55:56.824Z,24.03
2023-07-09T22:58:24.606Z,24.07
2023-07-09T23:00:56.140Z,23.96
2023-07-09T23:03:30.907Z,24.12
2023-07-09T23:05:58.511Z,23.87
2023-07-09T23:08:28.595Z,23.96
2023-07-09T23:10:58.365Z,23.89
2023-07-09T23:13:29.098Z,24.28
2023-07-09T23:15:56.604Z,23.91
2023-07-09T23:18:24.130Z,23.73
2023-07-09T23:20:51.832Z,23.62
2023-07-09T23:23:19.689Z,23.66
2023-07-09T23:25:48.257Z,23.75
2023-07-09T23:28:16.686Z,23.43
2023-07-09T23:30:44.456Z,23.59
2023-07-09T23:33:25.318Z,23.72
2023-07-09T23:35:53.720Z,23.60
2023-07-09T23:38:21.167Z,23.77
2023-07-09T23:40:48.720Z,23.48
2023-07-09T23:43:17.487Z,23.77
2023-07-09T23:45:45.277Z,23.37
2023-07-09T23:48:26.069Z,23.65
2023-07-09T23:50:59.756Z,23.55
2023-07-09T23:53:33.724Z,23.45
2023-07-09T23:56:25.721Z,23.54
2023-07-09T23:58:53.115Z,23.53
